• Join FlightAware (Why Join?)
  • Login
  • US Flag 
01:13PM EDT


 

Airport Tracker/Info


-or-


 

Live Flight TrackerFlight Track Log ✈ SKW5516 ✈ 07-Jun-2013 ✈ KFAT - KLAX

Flight Track Log - Related Links

Times and Time Zones

All times are in EDT time to prevent confusion due to time zone crossing. See the SKW5516 flight status page for this flight to view local times or setup timezone preferences in your user account.

Time Position Orientation Groundspeed Altitude Reporting Facility
EDT Latitude Longitude Course Direction KTS MPH feet Rate Location/Type
06:18PM 36.5462 -119.6084 159° South  Level Estimated
06:19PM 36.4886 -119.5809 159° South  Level Estimated
06:20PM 36.4310 -119.5535 159° South  Level Estimated
06:21PM 36.3734 -119.5261 159° South  Level Estimated
06:22PM 36.3158 -119.4988 159° South  Level Estimated
06:23PM 36.2582 -119.4715 159° South  Level Estimated
06:24PM 36.2006 -119.4442 159° South  Level Estimated
06:25PM 36.1429 -119.4170 159° South  Level Estimated
06:26PM 36.0853 -119.3898 159° South  Level Estimated
06:27PM 36.0277 -119.3627 159° South  Level Estimated
06:28PM 35.9701 -119.3356 159° South  Level Estimated
06:29PM 35.9124 -119.3085 159° South  Level Estimated
06:30PM 35.8548 -119.2815 159° South  Level Estimated
06:31PM 35.7971 -119.2545 159° South  Level Estimated
06:32PM 35.7394 -119.2276 159° South  Level Estimated
06:33PM 35.6818 -119.2007 159° South  Level Estimated
06:34PM 35.6241 -119.1738 159° South  Level Estimated
06:35PM 35.5664 -119.1470 159° South  Level Estimated
06:36PM 35.5087 -119.1202 159° South  Level Estimated
06:37PM 35.4510 -119.0934 159° South  Level Estimated
06:38PM 35.3933 -119.0667 159° South  Level Estimated
06:39PM 35.3357 -119.0400 159° South  Level Estimated
06:40PM 35.2779 -119.0134 159° South  Level Estimated
06:41PM 35.2202 -118.9868 159° South  Level Estimated
06:42PM 35.1625 -118.9603 159° South  Level Estimated
06:43PM 35.1048 -118.9337 159° South  Level Estimated
06:44PM 35.0471 -118.9072 159° South  Level Estimated
06:45PM 34.9893 -118.8808 159° South  Level Estimated
06:46PM 34.9316 -118.8544 159° South  Level Estimated
06:47PM 34.8738 -118.8280 159° South  Level Estimated
06:48PM 34.8161 -118.8017 159° South  Level Estimated
06:49PM 34.7583 -118.7754 159° South  Level Estimated
06:50PM 34.7005 -118.7491 160° South  Level Estimated
06:51PM 34.6428 -118.7229 160° South  Level Estimated
06:52PM 34.5850 -118.6967 160° South  Level Estimated
06:53PM 34.5272 -118.6705 160° South  Level Estimated
06:54PM 34.4694 -118.6444 160° South  Level Estimated
06:55PM 34.4116 -118.6183 160° South  Level Estimated
06:56PM 34.3538 -118.5923 160° South  Level Estimated
06:57PM 34.2960 -118.5663 160° South  Level Estimated
06:58PM 34.2382 -118.5403 160° South  Level Estimated
06:59PM 34.1804 -118.5144 160° South  Level Estimated
07:00PM 34.1226 -118.4885 160° South  Level Estimated
07:01PM 34.0647 -118.4626 160° South  Level Estimated
07:02PM 34.0069 -118.4368 160° South  Level Estimated
07:03PM 33.9491 -118.4110 160° South  Level Estimated
07:04PM 33.9425 -118.4081 160° South  Level Estimated
07:05PM 33.9425 -118.4081 164° South  Level Estimated
07:06PM 33.9425 -118.4081 164° South  Level Estimated
07:07PM 33.9425 -118.4081 164° South  Level Estimated
07:08PM 33.9425 -118.4081 164° South  Level Estimated
07:09PM 33.9425 -118.4081 164° South  Level Estimated
07:10PM 33.9425 -118.4081 164° South  Level Estimated
07:11PM 33.9425 -118.4081 164° South  Level Estimated
07:12PM 33.9425 -118.4081 164° South  Level Estimated
07:13PM 33.9425 -118.4081 164° South  Level Estimated
07:14PM 33.9425 -118.4081 164° South  Level Estimated